Aviation Digital Data Service (ADDS)

Output produced by METARs form (1429 UTC 21 May 2019)
found at http://www.aviationweather.gov/metar/data/
 
Forecast for: VRMM (MALE INTL/HULULE, MV)
Text: TAF VRMM 211100Z 2112/2218 27010KT 9999 FEW018TCU
Forecast period: 1200 UTC 21 May 2019 to 1800 UTC 22 May 2019
Forecast type: FROM: standard forecast or significant change
Winds: from the W (270 degrees) at 12 MPH (10 knots; 5.1 m/s)
Visibility: 6 or more miles 10+ km)
Ceiling: at least 12,000 feet AGL
Clouds: few clouds at 1800 feet AGL
Weather: no significant weather forecast for this period
Text: TEMPO 2113/2118 5000 TSRA SCT017CB
Forecast period: 1300 to 1800 UTC 21 May 2019
Forecast type: TEMPORARY: The following changes expected for less than half the time period
Visibility: 3 miles (5 km)
Ceiling: at least 12,000 feet AGL
Clouds: scattered clouds at 1700 feet AGL
Weather: TSRA  (rain associated with thunderstorm(s))